Time;durP1;ratioP1;P1;durP2;ratioP2;P2;SDS_P1;SDS_P2;PMS_P1;PMS_P2;Temp;Humidity;BMP_temperature;BMP_pressure;BME280_temperature;BME280_humidity;BME280_pressure;Samples;Min_cycle;Max_cycle;Signal;HPM_P1;HPM_P2
2023/05/21 00:00:41;;;;;;;;;16.00;16.00;;;;;17.72;54.63;101227.78;5097056;27;45344;-53
2023/05/21 00:03:12;;;;;;;;;20.00;16.00;;;;;17.75;54.58;101238.22;5096853;27;45464;-47
2023/05/21 00:05:41;;;;;;;;;19.33;14.00;;;;;17.74;54.59;101236.56;5095804;27;45334;-46
2023/05/21 00:08:06;;;;;;;;;19.33;16.00;;;;;17.71;55.04;101243.09;5096924;27;45902;-44
2023/05/21 00:10:32;;;;;;;;;18.67;14.67;;;;;17.67;54.93;101240.94;5096515;27;45476;-45
2023/05/21 00:12:57;;;;;;;;;14.33;14.00;;;;;17.68;54.61;101248.84;5097067;27;45343;-41
2023/05/21 00:15:22;;;;;;;;;17.33;16.00;;;;;17.65;55.36;101242.97;5097006;27;45318;-42
2023/05/21 00:17:48;;;;;;;;;21.67;16.00;;;;;17.63;55.17;101231.56;5096304;27;45481;-42
2023/05/21 00:20:13;;;;;;;;;24.33;16.67;;;;;17.63;55.23;101234.25;5097114;27;45322;-46
2023/05/21 00:22:40;;;;;;;;;18.33;15.00;;;;;17.58;55.00;101225.91;5096512;27;45352;-53
2023/05/21 00:25:07;;;;;;;;;21.00;16.33;;;;;17.58;55.49;101220.53;5096844;27;45397;-52
2023/05/21 00:27:32;;;;;;;;;16.67;15.67;;;;;17.55;55.08;101227.09;5096435;27;47097;-47
2023/05/21 00:29:57;;;;;;;;;17.67;17.67;;;;;17.53;55.66;101228.28;5096571;27;45461;-46
2023/05/21 00:32:23;;;;;;;;;17.00;12.00;;;;;17.52;55.73;101232.81;5096475;27;45452;-43
2023/05/21 00:34:48;;;;;;;;;21.33;17.00;;;;;17.50;55.75;101225.97;5096421;27;45755;-48
2023/05/21 00:37:14;;;;;;;;;19.00;19.00;;;;;17.49;55.94;101224.25;5096180;27;46262;-50
2023/05/21 00:39:39;;;;;;;;;16.67;15.00;;;;;17.44;55.54;101224.81;5096446;27;45348;-40
2023/05/21 00:42:05;;;;;;;;;18.33;16.67;;;;;17.44;55.87;101228.38;5096464;27;45496;-41
2023/05/21 00:44:33;;;;;;;;;21.67;18.00;;;;;17.44;56.03;101227.50;5096481;27;45448;-40
2023/05/21 00:47:00;;;;;;;;;17.33;15.00;;;;;17.44;56.19;101222.97;5096285;27;45486;-44
2023/05/21 00:49:27;;;;;;;;;21.00;19.33;;;;;17.39;55.89;101209.22;5094346;27;45331;-50
2023/05/21 00:51:53;;;;;;;;;19.67;16.67;;;;;17.42;56.42;101208.03;5096097;27;45175;-49
2023/05/21 00:54:19;;;;;;;;;22.67;19.00;;;;;17.42;56.56;101210.72;5095986;27;45355;-52
2023/05/21 00:56:46;;;;;;;;;21.00;17.33;;;;;17.38;56.13;101195.97;5095832;27;45470;-45
2023/05/21 00:59:11;;;;;;;;;19.33;15.00;;;;;17.37;55.92;101202.38;5096057;27;45345;-45
2023/05/21 01:01:37;;;;;;;;;22.33;18.33;;;;;17.33;56.15;101201.88;5095734;27;45822;-42
2023/05/21 01:04:02;;;;;;;;;18.67;17.67;;;;;17.24;56.82;101194.06;5096193;27;45343;-41
2023/05/21 01:06:28;;;;;;;;;20.00;18.33;;;;;17.24;56.16;101186.84;5095584;27;46043;-40
2023/05/21 01:08:57;;;;;;;;;24.33;17.67;;;;;17.24;56.97;101199.44;5095834;27;45401;-40
2023/05/21 01:11:35;;;;;;;;;20.33;18.00;;;;;17.23;56.54;101203.13;5096063;27;45307;-42
2023/05/21 01:14:02;;;;;;;;;21.00;18.00;;;;;17.21;57.09;101198.78;5096083;27;45311;-46
2023/05/21 01:16:27;;;;;;;;;20.67;17.00;;;;;17.20;56.43;101197.09;5095683;27;45412;-41
2023/05/21 01:18:52;;;;;;;;;18.33;17.67;;;;;17.20;56.63;101193.59;5095657;27;45502;-42
2023/05/21 01:21:20;;;;;;;;;21.67;18.33;;;;;17.17;56.73;101200.16;5095923;27;45287;-43
2023/05/21 01:23:46;;;;;;;;;18.00;16.67;;;;;17.14;57.30;101195.13;5095997;27;45309;-43
2023/05/21 01:26:11;;;;;;;;;22.67;20.33;;;;;17.15;57.28;101204.88;5095519;27;45259;-47
2023/05/21 01:28:37;;;;;;;;;21.67;18.33;;;;;17.15;57.44;101207.56;5095670;27;45379;-48
2023/05/21 01:31:20;;;;;;;;;23.00;19.33;;;;;17.13;56.50;101214.13;5095636;27;45428;-44
2023/05/21 01:33:51;;;;;;;;;24.67;23.00;;;;;17.11;57.17;101219.69;5095700;27;45306;-41
2023/05/21 01:36:25;;;;;;;;;20.67;19.33;;;;;17.09;57.48;101210.94;5093772;27;45449;-41
2023/05/21 01:39:08;;;;;;;;;17.00;15.00;;;;;17.05;57.13;101209.63;5095355;27;45319;-55
2023/05/21 01:41:37;;;;;;;;;24.00;20.00;;;;;17.03;57.30;101208.16;5095804;27;45342;-48
2023/05/21 01:44:05;;;;;;;;;25.67;21.00;;;;;17.01;57.12;101199.41;5095470;27;45308;-48
2023/05/21 01:46:35;;;;;;;;;20.00;19.00;;;;;16.99;57.68;101204.97;5095487;27;46241;-56
2023/05/21 01:49:01;;;;;;;;;23.00;20.00;;;;;16.94;57.87;101199.31;5098114;27;45498;-57
2023/05/21 01:51:27;;;;;;;;;19.33;17.67;;;;;16.90;57.90;101195.28;5098758;27;45410;-49
2023/05/21 01:53:52;;;;;;;;;21.33;20.33;;;;;16.92;57.91;101196.78;5099025;27;45551;-49
2023/05/21 01:56:18;;;;;;;;;19.33;19.33;;;;;16.89;57.81;101191.75;5098700;27;45381;-60
2023/05/21 01:58:43;;;;;;;;;20.67;20.00;;;;;16.89;57.74;101198.97;5098592;27;45317;-55
2023/05/21 02:01:08;;;;;;;;;24.00;23.00;;;;;16.85;57.92;101195.78;5098796;27;45243;-53
2023/05/21 02:03:34;;;;;;;;;22.00;21.33;;;;;16.86;58.30;101199.34;5098772;27;45339;-41
2023/05/21 02:05:59;;;;;;;;;22.33;18.67;;;;;16.82;57.91;101198.84;5098557;27;45253;-51
2023/05/21 02:08:26;;;;;;;;;25.33;21.33;;;;;16.81;57.70;101204.38;5098685;27;45325;-58
2023/05/21 02:10:51;;;;;;;;;22.33;20.00;;;;;16.78;57.92;101212.81;5098574;27;45399;-54
2023/05/21 02:13:19;;;;;;;;;27.00;24.33;;;;;16.78;58.57;101212.81;5098704;27;45279;-53
2023/05/21 02:15:45;;;;;;;;;24.67;20.33;;;;;16.74;58.15;101208.81;5098408;27;46358;-55
2023/05/21 02:18:15;;;;;;;;;22.33;22.33;;;;;16.70;58.34;101203.75;5098473;27;45333;-53
2023/05/21 02:20:40;;;;;;;;;22.33;18.67;;;;;16.74;58.47;101215.03;5098539;27;45304;-58
2023/05/21 02:23:06;;;;;;;;;24.00;21.00;;;;;16.75;58.52;101207.78;5098678;27;45569;-58
2023/05/21 02:25:31;;;;;;;;;26.00;22.33;;;;;16.74;58.65;101211.50;5098259;27;45422;-53
2023/05/21 02:27:56;;;;;;;;;20.00;20.00;;;;;16.72;58.86;101206.25;5098527;27;45362;-48
2023/05/21 02:30:22;;;;;;;;;22.33;21.00;;;;;16.71;58.50;101210.78;5098700;27;45288;-45
2023/05/21 02:32:48;;;;;;;;;24.00;23.33;;;;;16.70;58.76;101217.19;5098628;27;45473;-59
2023/05/21 02:35:14;;;;;;;;;25.00;20.33;;;;;16.67;58.93;101208.63;5097775;27;46101;-51
2023/05/21 02:37:39;;;;;;;;;28.67;24.00;;;;;16.69;59.08;101212.84;5097732;27;45265;-49
2023/05/21 02:40:06;;;;;;;;;28.67;22.00;;;;;16.65;58.89;101203.44;5098372;27;45356;-53
2023/05/21 02:42:32;;;;;;;;;26.00;24.33;;;;;16.68;59.01;101204.94;5098342;27;45714;-50
2023/05/21 02:44:58;;;;;;;;;24.00;19.33;;;;;16.67;58.58;101203.25;5097869;27;46989;-44
2023/05/21 02:47:24;;;;;;;;;23.00;20.67;;;;;16.65;58.92;101202.63;5097936;27;45287;-41
2023/05/21 02:49:50;;;;;;;;;24.67;21.67;;;;;16.63;58.89;101200.09;5097621;27;45417;-44
2023/05/21 02:52:17;;;;;;;;;23.67;19.33;;;;;16.65;59.01;101208.81;5097945;27;45644;-48
2023/05/21 02:54:43;;;;;;;;;28.67;25.00;;;;;16.56;58.92;101187.53;5097923;27;46581;-57
2023/05/21 02:57:08;;;;;;;;;24.33;21.67;;;;;16.63;58.87;101196.56;5097688;27;45247;-54
2023/05/21 02:59:33;;;;;;;;;22.33;21.33;;;;;16.64;58.88;101201.78;5097488;27;45372;-45
2023/05/21 03:01:59;;;;;;;;;26.67;24.00;;;;;16.63;59.18;101202.78;5097864;27;45466;-45
2023/05/21 03:04:27;;;;;;;;;28.67;22.33;;;;;16.64;59.27;101215.22;5097718;27;46320;-45
2023/05/21 03:06:53;;;;;;;;;27.67;25.00;;;;;16.64;59.25;101206.28;5113528;27;45349;-44
2023/05/21 03:09:22;;;;;;;;;23.33;22.33;;;;;16.62;59.10;101205.63;5097662;27;45461;-52
2023/05/21 03:11:48;;;;;;;;;27.33;21.33;;;;;16.63;58.83;101210.84;5097806;27;45342;-45
2023/05/21 03:14:13;;;;;;;;;28.00;24.33;;;;;16.63;59.35;101210.00;5097483;27;45535;-42
2023/05/21 03:16:40;;;;;;;;;27.67;24.33;;;;;16.61;58.91;101215.56;5097352;27;45357;-43
2023/05/21 03:19:10;;;;;;;;;19.00;18.33;;;;;16.59;58.94;101211.34;5097577;27;45371;-41
2023/05/21 03:21:36;;;;;;;;;25.67;19.33;;;;;16.57;59.01;101213.41;5097192;27;45680;-43
2023/05/21 03:24:02;;;;;;;;;24.67;21.33;;;;;16.55;59.46;101215.41;5097202;27;45267;-56
2023/05/21 03:26:28;;;;;;;;;25.33;21.00;;;;;16.52;59.64;101224.66;5097204;27;45282;-48
2023/05/21 03:28:54;;;;;;;;;21.00;18.67;;;;;16.49;59.58;101216.13;5097583;27;45395;-44
2023/05/21 03:31:20;;;;;;;;;26.67;22.00;;;;;16.43;59.69;101226.53;5097706;27;45330;-41
2023/05/21 03:33:45;;;;;;;;;27.33;23.67;;;;;16.42;59.45;101224.00;5096801;27;45500;-45
2023/05/21 03:36:11;;;;;;;;;26.00;21.67;;;;;16.38;59.70;101226.19;5097131;27;45313;-57
2023/05/21 03:38:36;;;;;;;;;26.33;24.67;;;;;16.34;60.13;101226.72;5097286;27;45516;-45
2023/05/21 03:41:01;;;;;;;;;22.67;20.33;;;;;16.29;59.78;101218.34;5097486;27;45508;-56
2023/05/21 03:43:27;;;;;;;;;29.00;24.00;;;;;16.25;59.75;101223.22;5097046;27;47110;-46
2023/05/21 03:45:53;;;;;;;;;23.00;23.00;;;;;16.23;60.30;101233.31;5096783;27;45568;-53
2023/05/21 03:48:19;;;;;;;;;37.00;26.33;;;;;16.20;60.39;101223.75;5097152;27;45423;-54
2023/05/21 03:50:44;;;;;;;;;25.33;24.33;;;;;16.14;60.42;101220.94;5097021;27;45392;-45
2023/05/21 03:53:10;;;;;;;;;31.33;28.33;;;;;16.09;60.72;101209.84;5097028;27;46079;-44
2023/05/21 03:55:35;;;;;;;;;31.33;27.33;;;;;16.11;60.93;101219.41;5095245;27;45374;-53
2023/05/21 03:58:01;;;;;;;;;32.00;27.67;;;;;16.05;60.48;101217.38;5096899;27;45382;-42
2023/05/21 04:00:26;;;;;;;;;33.00;29.33;;;;;15.93;60.45;101198.16;5096731;27;45292;-41
2023/05/21 04:02:51;;;;;;;;;33.00;28.00;;;;;16.06;60.97;101229.00;5096542;27;45948;-41
2023/05/21 04:05:17;;;;;;;;;37.00;29.00;;;;;16.02;61.19;101233.03;5096256;27;45321;-44
2023/05/21 04:07:45;;;;;;;;;33.33;28.00;;;;;16.02;60.96;101239.22;5096604;27;45476;-51
2023/05/21 04:10:10;;;;;;;;;32.67;28.67;;;;;16.03;61.25;101229.31;5096258;27;45413;-48
2023/05/21 04:12:36;;;;;;;;;31.67;28.33;;;;;16.02;61.15;101227.66;5095990;27;47112;-40
2023/05/21 04:15:01;;;;;;;;;32.67;27.67;;;;;16.02;61.14;101233.84;5096308;27;45506;-41
2023/05/21 04:17:27;;;;;;;;;28.67;26.00;;;;;16.02;61.31;101239.22;5096654;27;45359;-41
2023/05/21 04:19:53;;;;;;;;;30.67;26.67;;;;;16.02;61.24;101241.91;5095283;27;45393;-42
2023/05/21 04:22:18;;;;;;;;;36.67;29.00;;;;;16.02;61.10;101243.75;5095921;27;45287;-44
2023/05/21 04:24:45;;;;;;;;;36.67;28.00;;;;;16.00;61.36;101243.91;5096151;27;45391;-41
2023/05/21 04:27:12;;;;;;;;;28.67;24.33;;;;;16.03;61.20;101248.94;5096385;27;45669;-51
2023/05/21 04:29:41;;;;;;;;;29.67;26.33;;;;;15.99;61.18;101244.09;5096264;27;45458;-41
2023/05/21 04:32:07;;;;;;;;;27.00;26.33;;;;;16.06;61.15;101255.81;5096036;27;46366;-42
2023/05/21 04:34:32;;;;;;;;;34.00;27.00;;;;;15.97;61.01;101236.22;5096235;27;45948;-44
2023/05/21 04:36:58;;;;;;;;;30.33;24.67;;;;;16.05;60.77;101244.22;5095054;27;45335;-51
2023/05/21 04:39:23;;;;;;;;;34.33;27.67;;;;;16.08;61.40;101246.56;5096742;27;45532;-57
2023/05/21 04:41:49;;;;;;;;;30.67;27.67;;;;;16.10;61.36;101241.06;5095891;27;46065;-46
2023/05/21 04:44:14;;;;;;;;;25.33;23.33;;;;;16.12;60.78;101253.28;5096413;27;45502;-45
2023/05/21 04:46:40;;;;;;;;;37.33;28.67;;;;;16.14;61.03;101248.59;5096173;27;45362;-50
2023/05/21 04:49:05;;;;;;;;;33.33;27.33;;;;;16.17;60.99;101258.97;5112186;27;45375;-42
2023/05/21 04:51:30;;;;;;;;;51.67;39.33;;;;;16.19;60.76;101258.81;5095664;27;45314;-46
2023/05/21 04:53:57;;;;;;;;;37.00;34.67;;;;;16.21;60.84;101263.00;5095922;27;46845;-55
2023/05/21 04:56:25;;;;;;;;;43.33;35.00;;;;;16.20;61.07;101266.69;5096344;27;45370;-57
2023/05/21 04:58:52;;;;;;;;;48.33;39.33;;;;;16.22;61.03;101263.81;5095977;27;45394;-55
2023/05/21 05:01:18;;;;;;;;;35.00;31.67;;;;;16.20;60.62;101247.91;5094356;27;48167;-57
2023/05/21 05:03:44;;;;;;;;;34.67;28.67;;;;;16.29;60.79;101258.63;5095822;27;45410;-57
2023/05/21 05:06:10;;;;;;;;;30.67;27.00;;;;;16.32;60.81;101255.59;5096009;27;45380;-57
2023/05/21 05:08:35;;;;;;;;;41.00;28.00;;;;;16.36;60.43;101259.63;5095996;27;45293;-46
2023/05/21 05:11:01;;;;;;;;;32.00;29.00;;;;;16.38;60.31;101263.78;5095516;27;45268;-53
2023/05/21 05:13:26;;;;;;;;;34.33;28.67;;;;;16.43;60.37;101265.97;5095699;27;45442;-42
2023/05/21 05:15:52;;;;;;;;;33.00;25.67;;;;;16.46;60.14;101266.44;5096148;27;45326;-55
2023/05/21 05:18:18;;;;;;;;;33.67;28.00;;;;;16.45;60.29;101254.03;5095960;27;45451;-58
2023/05/21 05:20:43;;;;;;;;;33.67;28.00;;;;;16.54;59.97;101254.84;5095538;27;45349;-57
2023/05/21 05:23:09;;;;;;;;;28.00;26.33;;;;;16.58;59.80;101253.50;5097361;27;45497;-54
2023/05/21 05:25:34;;;;;;;;;27.67;25.33;;;;;15.91;59.67;101142.97;5099583;27;45849;-41
2023/05/21 05:28:00;;;;;;;;;29.00;27.00;;;;;16.73;59.71;101247.41;5099461;27;45505;-42
2023/05/21 05:30:25;;;;;;;;;45.33;37.67;;;;;16.77;59.65;101254.97;5099043;27;47191;-44
2023/05/21 05:32:50;;;;;;;;;56.67;45.33;;;;;16.71;59.25;101236.81;5099039;27;45351;-43
2023/05/21 05:35:16;;;;;;;;;43.00;35.00;;;;;16.87;59.51;101254.75;5099641;27;45332;-39
2023/05/21 05:37:41;;;;;;;;;38.33;30.67;;;;;16.90;59.35;101255.25;5099037;27;45390;-46
2023/05/21 05:40:07;;;;;;;;;31.00;25.00;;;;;16.95;59.30;101257.41;5098749;27;45996;-44
2023/05/21 05:42:33;;;;;;;;;30.00;27.33;;;;;16.99;58.97;101258.72;5098621;27;45347;-53
2023/05/21 05:44:58;;;;;;;;;38.33;30.33;;;;;17.00;59.01;101257.72;5098849;27;45405;-49
2023/05/21 05:47:23;;;;;;;;;37.33;31.67;;;;;17.04;58.87;101252.81;5098997;27;45390;-49
2023/05/21 05:49:49;;;;;;;;;32.00;28.67;;;;;17.04;58.96;101255.50;5098682;27;46416;-48
2023/05/21 05:52:15;;;;;;;;;36.00;27.00;;;;;17.01;58.69;101256.69;5098918;27;45377;-58
2023/05/21 05:54:40;;;;;;;;;37.67;30.00;;;;;17.01;58.80;101247.78;5098841;27;45303;-42
2023/05/21 05:57:05;;;;;;;;;34.00;31.33;;;;;17.03;58.79;101252.00;5099208;27;45530;-41
2023/05/21 05:59:32;;;;;;;;;30.67;28.67;;;;;17.04;58.72;101250.97;5098386;27;46908;-46
2023/05/21 06:01:58;;;;;;;;;34.33;26.67;;;;;17.08;58.60;101254.16;5098871;27;45362;-44
2023/05/21 06:04:24;;;;;;;;;29.67;29.00;;;;;17.11;58.27;101251.94;5098742;27;45216;-45
2023/05/21 06:06:49;;;;;;;;;27.33;26.67;;;;;17.19;58.27;101254.59;5098618;27;45370;-43
2023/05/21 06:09:15;;;;;;;;;32.67;29.00;;;;;17.25;57.96;101252.19;5098634;27;45979;-54
2023/05/21 06:11:40;;;;;;;;;28.33;26.67;;;;;17.34;57.74;101256.50;5098167;27;45922;-55
2023/05/21 06:14:06;;;;;;;;;37.33;28.00;;;;;17.43;57.56;101250.03;5098718;27;45481;-47
2023/05/21 06:16:31;;;;;;;;;33.00;28.00;;;;;17.53;57.27;101247.09;5098712;27;45371;-49
2023/05/21 06:18:56;;;;;;;;;33.33;28.33;;;;;17.62;57.15;101254.13;5098322;27;45358;-47
2023/05/21 06:21:21;;;;;;;;;34.33;27.67;;;;;17.71;56.98;101253.88;5098465;27;45856;-47
2023/05/21 06:23:47;;;;;;;;;30.33;25.67;;;;;17.74;56.55;101241.03;5098493;27;45428;-40
2023/05/21 06:26:12;;;;;;;;;31.67;29.67;;;;;17.82;56.54;101260.69;5098874;27;45453;-44
2023/05/21 06:28:37;;;;;;;;;31.33;29.00;;;;;17.96;56.62;101261.75;5096905;27;46322;-44
2023/05/21 06:31:03;;;;;;;;;24.67;24.33;;;;;18.15;56.16;101263.06;5098538;27;45334;-44
2023/05/21 06:33:28;;;;;;;;;33.00;27.00;;;;;18.31;55.68;101264.78;5097987;27;45416;-44
2023/05/21 06:35:54;;;;;;;;;28.33;26.33;;;;;18.41;55.54;101254.53;5098826;27;45381;-47
2023/05/21 06:38:19;;;;;;;;;34.00;25.00;;;;;18.59;54.94;101262.28;5098228;27;47303;-49
2023/05/21 06:40:46;;;;;;;;;27.33;25.00;;;;;18.75;54.37;101259.41;5098291;27;45441;-41
2023/05/21 06:43:12;;;;;;;;;30.00;25.00;;;;;18.89;54.42;101247.75;5097824;27;45382;-44
2023/05/21 06:45:38;;;;;;;;;28.33;24.00;;;;;18.99;53.97;101250.16;5098189;27;45382;-45
2023/05/21 06:48:03;;;;;;;;;31.67;26.33;;;;;19.19;53.49;101250.38;5097955;27;46011;-53
2023/05/21 06:50:28;;;;;;;;;25.67;25.00;;;;;19.44;52.79;101250.84;5098047;27;45473;-46
2023/05/21 06:52:54;;;;;;;;;35.33;28.33;;;;;19.87;52.34;101248.16;5098260;27;45397;-54
2023/05/21 06:55:20;;;;;;;;;39.33;27.67;;;;;20.46;50.47;101233.38;5098360;27;45378;-45
2023/05/21 06:57:45;;;;;;;;;23.00;19.67;;;;;21.10;48.66;101241.97;5096982;27;46888;-42
2023/05/21 07:00:11;;;;;;;;;30.67;26.67;;;;;21.52;48.34;101250.00;5098065;27;46019;-43
2023/05/21 07:02:36;;;;;;;;;30.33;28.33;;;;;22.25;46.71;101245.44;5098069;27;45392;-56
2023/05/21 07:05:02;;;;;;;;;26.67;25.33;;;;;23.24;44.96;101243.41;5098342;27;45299;-61
2023/05/21 07:07:27;;;;;;;;;30.33;27.67;;;;;24.29;43.10;101238.16;5097684;27;45628;-42
2023/05/21 07:09:52;;;;;;;;;31.00;25.33;;;;;25.16;41.28;101240.69;5098056;27;45632;-56
2023/05/21 07:12:18;;;;;;;;;27.75;26.25;;;;;25.82;39.71;101240.53;5097559;27;45985;-53
2023/05/21 07:14:43;;;;;;;;;28.25;26.50;;;;;26.64;38.66;101247.03;5098030;27;45402;-55
2023/05/21 07:17:08;;;;;;;;;29.25;25.75;;;;;27.37;40.09;101249.00;5097356;27;46819;-63
2023/05/21 07:19:34;;;;;;;;;23.00;22.75;;;;;28.12;37.20;101241.50;5097432;27;45295;-65
2023/05/21 07:21:59;;;;;;;;;23.50;23.25;;;;;28.68;37.30;101239.53;5097914;27;45296;-54
2023/05/21 07:24:26;;;;;;;;;28.75;22.50;;;;;29.16;33.37;101241.50;5097709;27;45386;-65
2023/05/21 07:26:51;;;;;;;;;29.00;24.50;;;;;29.49;33.54;101250.56;5097657;27;45824;-42
2023/05/21 07:29:17;;;;;;;;;26.50;23.75;;;;;28.97;33.43;101246.47;5097352;27;45201;-45
2023/05/21 07:31:42;;;;;;;;;28.50;24.75;;;;;28.90;34.12;101250.47;5097966;27;45525;-42
2023/05/21 07:34:08;;;;;;;;;28.50;22.75;;;;;29.36;32.62;101248.25;5097865;27;45271;-44
2023/05/21 07:36:33;;;;;;;;;24.25;20.25;;;;;29.88;32.80;101255.84;5097545;27;47444;-43
2023/05/21 07:38:59;;;;;;;;;21.25;20.00;;;;;30.72;31.13;101239.38;5097270;27;45410;-65
2023/05/21 07:41:24;;;;;;;;;23.60;19.80;;;;;31.62;30.43;101249.16;5097344;27;45375;-41
2023/05/21 07:43:50;;;;;;;;;23.00;19.00;;;;;32.54;29.07;101249.84;5097538;27;45594;-53
2023/05/21 07:46:15;;;;;;;;;25.50;22.50;;;;;32.90;28.17;101246.91;5096426;27;46055;-61
2023/05/21 07:48:40;;;;;;;;;29.00;20.00;;;;;32.79;27.63;101235.13;5097179;27;45398;-42
2023/05/21 07:51:06;;;;;;;;;24.00;24.00;;;;;33.34;27.72;101246.13;5097360;27;45352;-56
2023/05/21 07:53:32;;;;;;;;;21.00;21.00;;;;;34.07;28.19;101246.06;5097419;27;45512;-59
2023/05/21 07:55:58;;;;;;;;;17.75;15.00;;;;;34.69;26.69;101237.91;5097239;27;46947;-54
2023/05/21 07:58:23;;;;;;;;;19.20;18.80;;;;;35.28;26.72;101230.97;5097332;27;45359;-43
2023/05/21 08:00:49;;;;;;;;;20.25;17.75;;;;;35.86;25.17;101230.56;5097405;27;45403;-57
2023/05/21 08:03:16;;;;;;;;;27.75;19.75;;;;;36.42;23.70;101229.47;5097488;27;45414;-47
2023/05/21 08:05:47;;;;;;;;;20.00;18.20;;;;;36.91;23.70;101243.69;5097086;27;46148;-49
2023/05/21 08:08:20;;;;;;;;;19.40;17.40;;;;;37.36;24.70;101233.47;5096817;27;45410;-48
2023/05/21 08:10:46;;;;;;;;;18.20;17.40;;;;;37.79;23.19;101229.34;5097095;27;45335;-52
2023/05/21 08:13:12;;;;;;;;;21.50;17.00;;;;;38.03;22.83;101237.34;5097388;27;45506;-49
2023/05/21 08:15:38;;;;;;;;;18.40;16.60;;;;;38.59;22.09;101225.44;5096725;27;46160;-47
2023/05/21 08:18:04;;;;;;;;;16.00;14.25;;;;;38.81;21.47;101229.25;5096916;27;45448;-55
2023/05/21 08:20:32;;;;;;;;;15.40;13.40;;;;;38.32;21.33;101223.75;5096952;27;45533;-50
2023/05/21 08:22:57;;;;;;;;;18.20;12.40;;;;;37.96;22.23;101215.59;5097165;27;45496;-44
2023/05/21 08:25:22;;;;;;;;;18.50;17.75;;;;;38.19;21.35;101224.69;5096921;27;46061;-42
2023/05/21 08:27:48;;;;;;;;;14.25;13.25;;;;;38.04;22.18;101208.44;5096823;27;45521;-51
2023/05/21 08:30:13;;;;;;;;;17.00;14.00;;;;;37.29;22.46;101196.22;5097024;27;45394;-50
2023/05/21 08:32:39;;;;;;;;;15.00;15.00;;;;;36.79;22.43;101193.50;5097139;27;45440;-50
2023/05/21 08:35:05;;;;;;;;;15.75;15.75;;;;;37.10;22.31;101210.28;5096754;27;45993;-52
2023/05/21 08:37:30;;;;;;;;;16.25;12.75;;;;;38.01;22.12;101212.69;5096423;27;45358;-46
2023/05/21 08:39:55;;;;;;;;;15.25;12.00;;;;;39.10;20.58;101215.53;5096664;27;45283;-59
2023/05/21 08:42:23;;;;;;;;;17.25;11.75;;;;;39.42;20.14;101217.00;5095653;27;45403;-51
2023/05/21 08:44:51;;;;;;;;;15.00;13.20;;;;;38.66;21.50;101225.78;5096654;27;46448;-42
2023/05/21 08:47:21;;;;;;;;;10.60;10.60;;;;;38.46;20.68;101208.91;5096929;27;45343;-60
2023/05/21 08:49:48;;;;;;;;;9.60;8.80;;;;;39.41;19.80;101215.38;5096252;27;45532;-53
2023/05/21 08:52:14;;;;;;;;;11.40;11.40;;;;;40.01;19.36;101209.97;5096922;27;45399;-55
2023/05/21 08:54:40;;;;;;;;;11.20;11.00;;;;;39.83;19.77;101209.22;5096276;27;45993;-47
2023/05/21 08:57:06;;;;;;;;;13.25;11.25;;;;;39.23;21.05;101197.03;5096176;27;45332;-44
2023/05/21 08:59:32;;;;;;;;;11.40;11.40;;;;;39.76;19.46;101190.22;5096359;27;45299;-55
2023/05/21 09:01:58;;;;;;;;;12.50;12.50;;;;;40.05;19.23;101196.97;5096916;27;45804;-42
2023/05/21 09:04:25;;;;;;;;;11.00;11.00;;;;;39.55;20.04;101214.34;5096250;27;46474;-49
2023/05/21 09:06:50;;;;;;;;;13.60;12.00;;;;;40.00;19.89;101202.75;5096467;27;45367;-59
2023/05/21 09:09:26;;;;;;;;;11.50;11.50;;;;;40.62;19.22;101202.09;5096418;27;45363;-59
2023/05/21 09:11:52;;;;;;;;;10.40;9.40;;;;;40.85;19.02;101217.34;5096113;27;45476;-58
2023/05/21 09:14:19;;;;;;;;;13.00;11.75;;;;;40.75;20.08;101195.44;5096032;27;46173;-46
2023/05/21 09:16:47;;;;;;;;;18.00;11.80;;;;;40.61;19.49;101214.41;5096531;27;45512;-49
2023/05/21 09:19:12;;;;;;;;;12.20;11.40;;;;;40.46;20.24;101223.34;5096385;27;45407;-58
2023/05/21 09:21:38;;;;;;;;;15.25;13.00;;;;;40.98;18.05;101214.66;5096269;27;45342;-55
2023/05/21 09:24:04;;;;;;;;;10.75;10.75;;;;;41.43;18.60;101209.16;5095896;27;46284;-57
2023/05/21 09:26:30;;;;;;;;;13.20;12.80;;;;;41.51;17.70;101219.41;5096145;27;45413;-60
2023/05/21 09:28:58;;;;;;;;;11.75;11.50;;;;;41.58;18.89;101216.03;5096363;27;45407;-60
2023/05/21 09:31:24;;;;;;;;;14.60;12.60;;;;;41.41;18.13;101214.25;5096372;27;45385;-60
2023/05/21 09:33:50;;;;;;;;;8.60;8.60;;;;;40.99;18.83;101208.72;5096082;27;46202;-61
2023/05/21 09:36:21;;;;;;;;;12.00;10.75;;;;;41.45;18.44;101211.59;5096372;27;45445;-42
2023/05/21 09:38:53;;;;;;;;;14.00;12.20;;;;;41.50;19.08;101208.56;5096010;27;45290;-53
2023/05/21 09:41:19;;;;;;;;;13.80;12.60;;;;;41.42;17.95;101201.91;5096226;27;45429;-42
2023/05/21 09:43:44;;;;;;;;;14.80;12.20;;;;;41.50;17.98;101206.59;5095659;27;45542;-41
2023/05/21 09:46:10;;;;;;;;;13.50;11.00;;;;;41.74;17.72;101202.22;5095872;27;45413;-53
2023/05/21 09:48:37;;;;;;;;;16.25;16.00;;;;;41.68;17.52;101206.38;5095892;27;45463;-56
2023/05/21 09:51:14;;;;;;;;;12.60;12.60;;;;;41.96;18.66;101198.19;5096035;27;45414;-50
2023/05/21 09:53:50;;;;;;;;;14.60;14.20;;;;;42.30;17.21;101192.13;5095550;27;45477;-45
2023/05/21 09:56:28;;;;;;;;;16.80;14.00;;;;;42.52;17.00;101198.38;5095829;27;45367;-59
2023/05/21 09:59:05;;;;;;;;;13.00;12.40;;;;;42.64;17.89;101190.00;5095672;27;45203;-44
2023/05/21 10:01:32;;;;;;;;;12.60;11.20;;;;;42.64;17.05;101192.78;5095640;27;45303;-55
2023/05/21 10:04:01;;;;;;;;;15.80;14.40;;;;;42.87;17.82;101183.88;5095474;27;45413;-42
2023/05/21 10:06:28;;;;;;;;;15.00;13.60;;;;;42.75;16.42;101177.16;5095686;27;45293;-43
2023/05/21 10:08:56;;;;;;;;;12.60;12.60;;;;;42.39;17.49;101166.84;5096702;27;45362;-44
2023/05/21 10:11:24;;;;;;;;;15.60;13.60;;;;;42.52;16.99;101165.66;5098805;27;45439;-43
2023/05/21 10:13:53;;;;;;;;;14.80;14.40;;;;;42.53;17.43;101172.06;5098669;27;47200;-45
2023/05/21 10:16:18;;;;;;;;;14.20;12.60;;;;;42.01;17.29;101167.22;5098725;27;45314;-43
2023/05/21 10:18:45;;;;;;;;;14.50;12.00;;;;;41.91;17.33;101167.69;5098692;27;45429;-58
2023/05/21 10:21:11;;;;;;;;;12.00;11.40;;;;;42.07;16.95;101174.19;5097818;27;45340;-51
2023/05/21 10:23:38;;;;;;;;;13.80;12.00;;;;;42.70;16.45;101177.41;5098301;27;46562;-58
2023/05/21 10:26:05;;;;;;;;;15.40;13.40;;;;;42.52;16.63;101173.22;5098624;27;45453;-47
2023/05/21 10:28:32;;;;;;;;;15.40;14.00;;;;;42.27;17.46;101173.28;5098557;27;45320;-55
2023/05/21 10:30:58;;;;;;;;;15.00;14.80;;;;;41.48;17.87;101171.81;5098682;27;45683;-55
2023/05/21 10:33:25;;;;;;;;;15.80;15.00;;;;;39.76;18.81;101175.47;5098711;27;46079;-42
2023/05/21 10:35:52;;;;;;;;;15.60;14.80;;;;;38.26;20.60;101166.66;5098334;27;45460;-43
2023/05/21 10:38:19;;;;;;;;;16.20;14.20;;;;;38.86;19.85;101177.09;5098667;27;45299;-44
2023/05/21 10:40:46;;;;;;;;;13.00;13.00;;;;;39.39;19.60;101175.88;5099143;27;45415;-44
2023/05/21 10:43:48;;;;;;;;;12.80;12.80;;;;;38.87;19.95;101170.38;5097920;27;46331;-42
2023/05/21 10:46:32;;;;;;;;;15.40;13.40;;;;;39.28;19.42;101168.25;5098377;27;45339;-57
2023/05/21 10:49:22;;;;;;;;;14.80;14.40;;;;;39.76;18.73;101170.72;5098115;27;45401;-50
2023/05/21 10:52:18;;;;;;;;;12.00;12.00;;;;;39.96;18.56;101160.81;5098955;27;45730;-54
2023/05/21 10:54:48;;;;;;;;;13.60;13.60;;;;;39.80;18.44;101163.34;5098002;27;45366;-59
2023/05/21 10:57:39;;;;;;;;;15.60;12.40;;;;;39.16;19.28;101141.88;5098074;27;45460;-56
2023/05/21 11:00:06;;;;;;;;;14.80;12.00;;;;;38.51;19.41;101162.31;5098087;27;45422;-58
2023/05/21 11:02:32;;;;;;;;;12.60;12.60;;;;;37.81;19.72;101161.28;5098263;27;45560;-54
2023/05/21 11:04:59;;;;;;;;;15.75;15.00;;;;;36.52;21.38;101170.28;5097642;27;46090;-42
2023/05/21 11:07:56;;;;;;;;;14.00;13.40;;;;;35.16;22.75;101169.78;5098090;27;45356;-58